createdAt,value
2023-05-02T00:01:19.583Z,101368.88
2023-05-02T00:03:46.246Z,101368.06
2023-05-02T00:06:13.022Z,101373.84
2023-05-02T00:08:39.582Z,101368.41
2023-05-02T00:11:06.025Z,101369.59
2023-05-02T00:13:32.366Z,101372.91
2023-05-02T00:15:58.827Z,101366.28
2023-05-02T00:18:25.246Z,101361.31
2023-05-02T00:20:51.695Z,101362.63
2023-05-02T00:23:18.224Z,101363.22
2023-05-02T00:25:46.093Z,101367.25
2023-05-02T00:28:13.690Z,101374.09
2023-05-02T00:30:46.945Z,101369.81
2023-05-02T00:33:14.834Z,101367.22
2023-05-02T00:35:41.793Z,101378.09
2023-05-02T00:38:08.937Z,101383.28
2023-05-02T00:40:46.052Z,101381.88
2023-05-02T00:43:12.653Z,101387.06
2023-05-02T00:45:43.322Z,101387.41
2023-05-02T00:48:10.556Z,101382.06
2023-05-02T00:50:41.883Z,101390.16
2023-05-02T00:53:09.673Z,101396.16
2023-05-02T00:55:36.494Z,101403.38
2023-05-02T00:58:14.132Z,101399.31
2023-05-02T01:00:56.672Z,101400.63
2023-05-02T01:03:39.627Z,101409.84
2023-05-02T01:06:16.798Z,101407.81
2023-05-02T01:08:55.975Z,101399.06
2023-05-02T01:11:57.686Z,101401.56
2023-05-02T01:14:28.290Z,101414.16
2023-05-02T01:16:58.060Z,101412.06
2023-05-02T01:19:34.422Z,101419.16
2023-05-02T01:22:04.822Z,101416.19
2023-05-02T01:24:58.705Z,101420.94
2023-05-02T01:27:36.834Z,101416.34
2023-05-02T01:30:04.970Z,101421.59
2023-05-02T01:32:34.523Z,101422.28
2023-05-02T01:35:02.343Z,101420.31
2023-05-02T01:37:30.846Z,101427.06
2023-05-02T01:39:59.541Z,101436.41
2023-05-02T01:42:26.792Z,101439.22
2023-05-02T01:44:56.395Z,101438.88
2023-05-02T01:47:24.205Z,101438.41
2023-05-02T01:49:52.997Z,101441.50
2023-05-02T01:52:22.909Z,101440.78
2023-05-02T01:54:51.247Z,101439.72
2023-05-02T01:57:18.841Z,101444.94
2023-05-02T01:59:47.515Z,101449.53
2023-05-02T02:02:14.406Z,101448.72
2023-05-02T02:04:42.512Z,101459.94
2023-05-02T02:07:12.229Z,101460.91
2023-05-02T02:09:38.934Z,101462.19
2023-05-02T02:12:14.088Z,101468.81
2023-05-02T02:14:46.247Z,101474.03
2023-05-02T02:17:16.431Z,101479.69
2023-05-02T02:19:44.055Z,101474.50
2023-05-02T02:22:13.519Z,101479.94
2023-05-02T02:24:41.033Z,101482.41
2023-05-02T02:27:07.392Z,101480.78
2023-05-02T02:29:33.731Z,101474.97
2023-05-02T02:32:00.148Z,101486.22
2023-05-02T02:34:26.526Z,101490.84
2023-05-02T02:37:01.806Z,101481.94
2023-05-02T02:40:05.397Z,101485.72
2023-05-02T02:42:56.363Z,101492.38
2023-05-02T02:45:32.692Z,101500.28
2023-05-02T02:48:19.581Z,101496.91
2023-05-02T02:51:22.328Z,101513.78
2023-05-02T02:54:15.412Z,101508.78
2023-05-02T02:56:59.401Z,101499.59
2023-05-02T02:59:32.687Z,101506.91
2023-05-02T03:02:08.114Z,101505.38
2023-05-02T03:04:38.797Z,101519.50
2023-05-02T03:07:05.362Z,101508.97
2023-05-02T03:09:45.409Z,101524.81
2023-05-02T03:12:12.078Z,101521.84
2023-05-02T03:14:38.966Z,101528.72
2023-05-02T03:17:05.833Z,101528.13
2023-05-02T03:19:32.281Z,101529.78
2023-05-02T03:21:58.654Z,101531.44
2023-05-02T03:24:27.533Z,101528.84
2023-05-02T03:26:59.009Z,101533.69
2023-05-02T03:29:26.468Z,101536.41
2023-05-02T03:31:52.973Z,101537.94
2023-05-02T03:34:21.861Z,101531.31
2023-05-02T03:36:48.248Z,101543.50
2023-05-02T03:39:15.229Z,101537.94
2023-05-02T03:41:42.396Z,101538.69
2023-05-02T03:44:08.770Z,101543.50
2023-05-02T03:46:36.472Z,101543.84
2023-05-02T03:49:02.959Z,101549.66
2023-05-02T03:51:29.274Z,101554.53
2023-05-02T03:53:55.736Z,101551.34
2023-05-02T03:56:22.062Z,101550.75
2023-05-02T03:58:49.108Z,101544.22
2023-05-02T04:01:16.789Z,101547.75
2023-05-02T04:03:43.572Z,101552.88
2023-05-02T04:06:10.412Z,101555.47
2023-05-02T04:08:37.182Z,101550.25
2023-05-02T04:11:03.807Z,101555.09
2023-05-02T04:13:30.306Z,101557.97
2023-05-02T04:15:56.746Z,101565.03
2023-05-02T04:18:23.129Z,101563.19
2023-05-02T04:20:50.277Z,101567.53
2023-05-02T04:23:17.539Z,101560.78
2023-05-02T04:25:54.252Z,101569.91
2023-05-02T04:28:22.104Z,101569.31
2023-05-02T04:30:50.004Z,101577.97
2023-05-02T04:33:18.126Z,101580.09
2023-05-02T04:35:44.771Z,101579.63
2023-05-02T04:38:11.149Z,101577.38
2023-05-02T04:40:37.586Z,101581.16
2023-05-02T04:43:04.055Z,101595.00
2023-05-02T04:45:30.382Z,101596.44
2023-05-02T04:47:56.788Z,101602.47
2023-05-02T04:50:23.238Z,101598.66
2023-05-02T04:52:50.040Z,101605.53
2023-05-02T04:55:16.430Z,101605.53
2023-05-02T04:57:43.091Z,101610.16
2023-05-02T05:00:09.930Z,101599.84
2023-05-02T05:02:36.490Z,101611.94
2023-05-02T05:05:03.129Z,101619.41
2023-05-02T05:07:29.511Z,101610.28
2023-05-02T05:09:56.019Z,101616.09
2023-05-02T05:12:22.502Z,101617.72
2023-05-02T05:14:50.582Z,101615.25
2023-05-02T05:17:17.196Z,101629.00
2023-05-02T05:19:43.700Z,101624.25
2023-05-02T05:22:10.082Z,101631.81
2023-05-02T05:24:36.639Z,101639.75
2023-05-02T05:27:03.105Z,101645.19
2023-05-02T05:29:32.755Z,101649.69
2023-05-02T05:31:59.325Z,101649.47
2023-05-02T05:34:26.713Z,101649.22
2023-05-02T05:36:53.145Z,101655.63
2023-05-02T05:39:19.654Z,101654.22
2023-05-02T05:41:46.390Z,101667.00
2023-05-02T05:44:12.847Z,101672.06
2023-05-02T05:46:39.353Z,101675.38
2023-05-02T05:49:06.377Z,101678.38
2023-05-02T05:51:32.788Z,101674.69
2023-05-02T05:53:59.199Z,101683.22
2023-05-02T05:56:25.558Z,101689.00
2023-05-02T05:58:52.183Z,101690.09
2023-05-02T06:01:18.559Z,101686.19
2023-05-02T06:03:45.023Z,101690.53
2023-05-02T06:06:11.646Z,101692.69
2023-05-02T06:08:37.974Z,101690.09
2023-05-02T06:11:08.749Z,101692.94
2023-05-02T06:13:35.286Z,101695.41
2023-05-02T06:16:02.623Z,101696.25
2023-05-02T06:18:29.003Z,101697.91
2023-05-02T06:20:55.407Z,101698.28
2023-05-02T06:23:21.912Z,101695.31
2023-05-02T06:25:48.211Z,101710.00
2023-05-02T06:28:14.581Z,101711.53
2023-05-02T06:30:41.091Z,101715.91
2023-05-02T06:33:07.529Z,101712.25
2023-05-02T06:35:34.188Z,101725.88
2023-05-02T06:38:00.635Z,101725.88
2023-05-02T06:40:27.064Z,101729.66
2023-05-02T06:42:53.633Z,101729.66
2023-05-02T06:45:20.019Z,101738.91
2023-05-02T06:47:46.457Z,101734.13
2023-05-02T06:50:13.011Z,101747.41
2023-05-02T06:52:39.416Z,101752.50
2023-05-02T06:55:06.295Z,101753.31
2023-05-02T06:57:33.197Z,101754.84
2023-05-02T06:59:59.738Z,101763.16
2023-05-02T07:02:26.305Z,101759.81
2023-05-02T07:04:53.208Z,101759.81
2023-05-02T07:07:21.929Z,101761.53
2023-05-02T07:09:48.588Z,101775.84
2023-05-02T07:12:15.050Z,101769.31
2023-05-02T07:14:41.430Z,101778.81
2023-05-02T07:17:08.474Z,101779.63
2023-05-02T07:19:34.961Z,101780.69
2023-05-02T07:22:01.305Z,101788.75
2023-05-02T07:24:27.662Z,101790.31
2023-05-02T07:26:54.166Z,101791.50
2023-05-02T07:29:20.615Z,101799.69
2023-05-02T07:31:47.084Z,101796.97
2023-05-02T07:34:13.593Z,101804.06
2023-05-02T07:36:40.008Z,101807.72
2023-05-02T07:39:07.896Z,101806.13
2023-05-02T07:41:34.307Z,101805.41
2023-05-02T07:44:00.898Z,101818.28
2023-05-02T07:46:27.335Z,101820.53
2023-05-02T07:48:54.136Z,101821.00
2023-05-02T07:51:21.578Z,101826.00
2023-05-02T07:53:51.785Z,101826.81
2023-05-02T07:56:18.214Z,101835.19
2023-05-02T07:58:44.504Z,101835.28
2023-05-02T08:01:11.603Z,101841.94
2023-05-02T08:03:38.107Z,101836.59
2023-05-02T08:06:04.760Z,101841.47
2023-05-02T08:08:31.074Z,101853.31
2023-05-02T08:10:57.527Z,101841.59
2023-05-02T08:13:23.917Z,101851.25
2023-05-02T08:15:50.736Z,101841.81
2023-05-02T08:18:17.176Z,101848.78
2023-05-02T08:20:43.562Z,101857.47
2023-05-02T08:23:10.586Z,101855.81
2023-05-02T08:25:37.079Z,101859.41
2023-05-02T08:28:03.565Z,101859.03
2023-05-02T08:30:30.050Z,101865.91
2023-05-02T08:32:56.582Z,101869.38
2023-05-02T08:35:23.017Z,101869.38
2023-05-02T08:37:49.408Z,101872.22
2023-05-02T08:40:22.107Z,101869.78
2023-05-02T08:42:57.349Z,101876.06
2023-05-02T08:45:24.794Z,101870.59
2023-05-02T08:47:52.574Z,101881.03
2023-05-02T08:50:19.673Z,101885.09
2023-05-02T08:52:47.213Z,101885.59
2023-05-02T08:55:14.050Z,101884.50
2023-05-02T08:57:41.311Z,101885.00
2023-05-02T09:00:08.683Z,101883.56
2023-05-02T09:03:04.745Z,101892.81
2023-05-02T09:05:36.734Z,101892.81
2023-05-02T09:08:03.213Z,101893.41
2023-05-02T09:10:31.187Z,101908.44
2023-05-02T09:12:57.604Z,101909.75
2023-05-02T09:15:23.911Z,101922.53
2023-05-02T09:17:50.414Z,101924.94
2023-05-02T09:20:17.017Z,101928.22
2023-05-02T09:22:51.580Z,101932.25
2023-05-02T09:25:19.863Z,101939.75
2023-05-02T09:27:56.816Z,101947.91
2023-05-02T09:30:25.560Z,101943.25
2023-05-02T09:32:55.034Z,101945.13
2023-05-02T09:35:24.748Z,101951.69
2023-05-02T09:37:55.974Z,101961.22
2023-05-02T09:40:23.343Z,101964.88
2023-05-02T09:42:50.686Z,101971.22
2023-05-02T09:45:25.590Z,101967.06
2023-05-02T09:47:52.900Z,101972.41
2023-05-02T09:50:34.782Z,101978.34
2023-05-02T09:53:09.669Z,101978.53
2023-05-02T09:55:36.351Z,101978.75
2023-05-02T09:58:03.360Z,101989.22
2023-05-02T10:00:59.569Z,101995.75
2023-05-02T10:03:28.068Z,101988.31
2023-05-02T10:05:55.816Z,102001.69
2023-05-02T10:08:27.432Z,101999.41
2023-05-02T10:10:56.316Z,101995.44
2023-05-02T10:13:27.329Z,101992.16
2023-05-02T10:16:00.620Z,101990.78
2023-05-02T10:19:06.535Z,101990.09
2023-05-02T10:21:34.434Z,101992.13
2023-05-02T10:24:03.491Z,101989.78
2023-05-02T10:26:30.732Z,101998.91
2023-05-02T10:28:57.223Z,101997.72
2023-05-02T10:31:24.490Z,102002.97
2023-05-02T10:33:51.804Z,101995.06
2023-05-02T10:36:21.874Z,102005.03
2023-05-02T10:38:48.926Z,102006.59
2023-05-02T10:41:37.756Z,102002.34
2023-05-02T10:44:07.675Z,102003.75
2023-05-02T10:46:36.368Z,102005.19
2023-05-02T10:49:06.988Z,102003.91
2023-05-02T10:51:34.559Z,101999.63
2023-05-02T10:54:20.015Z,102003.84
2023-05-02T10:57:05.830Z,102003.16
2023-05-02T10:59:37.270Z,101998.19
2023-05-02T11:02:07.233Z,102007.69
2023-05-02T11:05:06.295Z,102004.84
2023-05-02T11:07:34.553Z,102002.25
2023-05-02T11:10:22.316Z,102002.13
2023-05-02T11:12:49.705Z,102000.13
2023-05-02T11:15:41.853Z,101987.88
2023-05-02T11:18:13.078Z,102002.84
2023-05-02T11:20:44.847Z,102005.19
2023-05-02T11:23:18.140Z,102003.91
2023-05-02T11:25:46.845Z,102002.72
2023-05-02T11:28:38.334Z,101996.44
2023-05-02T11:31:06.320Z,101997.75
2023-05-02T11:33:32.878Z,102002.13
2023-05-02T11:35:59.364Z,101997.00
2023-05-02T11:38:34.937Z,101995.94
2023-05-02T11:41:02.845Z,101999.03
2023-05-02T11:43:31.879Z,102003.91
2023-05-02T11:46:00.199Z,102005.69
2023-05-02T11:48:27.674Z,102007.81
2023-05-02T11:51:02.056Z,102008.66
2023-05-02T11:53:29.370Z,102019.56
2023-05-02T11:55:57.938Z,102016.13
2023-05-02T11:58:33.463Z,102015.28
2023-05-02T12:01:13.242Z,102013.03
2023-05-02T12:03:39.930Z,102020.63
2023-05-02T12:06:14.553Z,102028.09
2023-05-02T12:08:43.821Z,102021.22
2023-05-02T12:11:13.557Z,102021.34
2023-05-02T12:13:50.486Z,102027.88
2023-05-02T12:16:18.145Z,102027.03
2023-05-02T12:18:45.223Z,102025.63
2023-05-02T12:21:12.074Z,102025.34
2023-05-02T12:23:39.909Z,102028.44
2023-05-02T12:26:25.570Z,102025.72
2023-05-02T12:28:54.480Z,102034.50
2023-05-02T12:31:21.786Z,102048.06
2023-05-02T12:33:50.237Z,102039.97
2023-05-02T12:36:17.649Z,102044.50
2023-05-02T12:38:57.073Z,102044.41
2023-05-02T12:41:37.353Z,102045.44
2023-05-02T12:44:04.936Z,102042.34
2023-05-02T12:46:31.986Z,102055.91
2023-05-02T12:49:06.355Z,102050.56
2023-05-02T12:51:32.982Z,102056.28
2023-05-02T12:53:59.404Z,102057.56
2023-05-02T12:56:31.993Z,102064.56
2023-05-02T12:59:04.223Z,102068.34
2023-05-02T13:01:32.558Z,102063.84
2023-05-02T13:03:59.044Z,102069.66
2023-05-02T13:06:25.990Z,102071.56
2023-05-02T13:08:52.440Z,102069.06
2023-05-02T13:11:19.363Z,102072.75
2023-05-02T13:13:45.840Z,102073.47
2023-05-02T13:16:12.495Z,102071.69
2023-05-02T13:18:39.059Z,102073.09
2023-05-02T13:21:05.735Z,102080.09
2023-05-02T13:23:32.092Z,102078.22
2023-05-02T13:25:58.985Z,102071.09
2023-05-02T13:28:25.864Z,102074.22
2023-05-02T13:30:52.418Z,102073.81
2023-05-02T13:33:19.185Z,102075.81
2023-05-02T13:35:46.360Z,102079.94
2023-05-02T13:38:12.758Z,102080.25
2023-05-02T13:40:39.136Z,102084.66
2023-05-02T13:43:05.675Z,102087.41
2023-05-02T13:45:32.232Z,102084.06
2023-05-02T13:47:58.622Z,102082.38
2023-05-02T13:50:25.031Z,102092.78
2023-05-02T13:52:51.587Z,102083.19
2023-05-02T13:55:18.218Z,102089.03
2023-05-02T13:57:44.887Z,102087.78
2023-05-02T14:00:12.048Z,102086.06
2023-05-02T14:02:39.002Z,102088.88
2023-05-02T14:05:06.164Z,102082.44
2023-05-02T14:07:33.442Z,102082.03
2023-05-02T14:10:00.194Z,102073.00
2023-05-02T14:12:26.895Z,102084.88
2023-05-02T14:14:53.600Z,102091.34
2023-05-02T14:17:20.046Z,102085.88
2023-05-02T14:19:46.370Z,102090.59
2023-05-02T14:22:12.761Z,102092.56
2023-05-02T14:24:39.139Z,102100.56
2023-05-02T14:27:07.574Z,102088.38
2023-05-02T14:29:33.883Z,102092.72
2023-05-02T14:32:00.518Z,102081.91
2023-05-02T14:34:27.210Z,102094.91
2023-05-02T14:36:53.653Z,102084.88
2023-05-02T14:39:20.232Z,102084.09
2023-05-02T14:41:46.687Z,102081.78
2023-05-02T14:44:13.050Z,102089.47
2023-05-02T14:46:39.776Z,102085.13
2023-05-02T14:49:06.429Z,102085.78
2023-05-02T14:51:32.800Z,102088.75
2023-05-02T14:53:59.183Z,102082.50
2023-05-02T14:56:25.790Z,102080.34
2023-05-02T14:58:52.144Z,102085.78
2023-05-02T15:01:20.361Z,102078.53
2023-05-02T15:04:04.395Z,102076.25
2023-05-02T15:06:32.637Z,102079.25
2023-05-02T15:08:59.259Z,102074.41
2023-05-02T15:11:25.896Z,102081.31
2023-05-02T15:13:52.332Z,102073.22
2023-05-02T15:16:18.829Z,102079.63
2023-05-02T15:18:45.488Z,102070.75
2023-05-02T15:21:12.028Z,102074.84
2023-05-02T15:23:38.369Z,102074.22
2023-05-02T15:26:04.806Z,102074.28
2023-05-02T15:28:31.202Z,102076.97
2023-05-02T15:30:57.620Z,102073.09
2023-05-02T15:33:23.971Z,102076.59
2023-05-02T15:35:55.513Z,102080.16
2023-05-02T15:38:22.244Z,102077.09
2023-05-02T15:40:57.698Z,102082.09
2023-05-02T15:43:24.467Z,102084.91
2023-05-02T15:45:52.795Z,102077.50
2023-05-02T15:48:19.320Z,102089.81
2023-05-02T15:50:47.021Z,102087.19
2023-05-02T15:53:15.694Z,102087.16
2023-05-02T15:55:43.327Z,102092.63
2023-05-02T15:58:10.052Z,102094.47
2023-05-02T16:00:36.407Z,102097.75
2023-05-02T16:03:04.110Z,102092.47
2023-05-02T16:05:30.952Z,102091.81
2023-05-02T16:07:57.253Z,102087.69
2023-05-02T16:10:23.936Z,102092.41
2023-05-02T16:12:50.253Z,102090.16
2023-05-02T16:15:16.703Z,102095.19
2023-05-02T16:17:43.160Z,102094.41
2023-05-02T16:20:10.790Z,102095.81
2023-05-02T16:22:39.059Z,102087.56
2023-05-02T16:25:05.758Z,102090.88
2023-05-02T16:27:33.308Z,102102.53
2023-05-02T16:30:00.142Z,102103.59
2023-05-02T16:32:28.100Z,102108.41
2023-05-02T16:34:54.516Z,102104.22
2023-05-02T16:37:20.907Z,102104.22
2023-05-02T16:39:47.383Z,102105.03
2023-05-02T16:42:13.680Z,102101.47
2023-05-02T16:44:40.169Z,102111.25
2023-05-02T16:47:08.038Z,102106.44
2023-05-02T16:49:34.659Z,102105.53
2023-05-02T16:52:01.056Z,102113.63
2023-05-02T16:54:27.470Z,102104.00
2023-05-02T16:56:53.877Z,102102.41
2023-05-02T16:59:20.412Z,102103.28
2023-05-02T17:01:46.780Z,102106.88
2023-05-02T17:04:13.242Z,102107.47
2023-05-02T17:06:39.636Z,102114.09
2023-05-02T17:09:06.210Z,102116.97
2023-05-02T17:11:32.714Z,102114.09
2023-05-02T17:13:59.029Z,102106.97
2023-05-02T17:16:25.500Z,102106.63
2023-05-02T17:18:51.983Z,102108.63
2023-05-02T17:21:18.379Z,102112.56
2023-05-02T17:23:44.937Z,102114.22
2023-05-02T17:26:14.928Z,102112.44
2023-05-02T17:28:43.303Z,102112.69
2023-05-02T17:31:10.543Z,102107.91
2023-05-02T17:33:37.371Z,102104.84
2023-05-02T17:36:04.843Z,102110.19
2023-05-02T17:38:31.208Z,102108.88
2023-05-02T17:40:57.724Z,102113.50
2023-05-02T17:43:24.155Z,102115.28
2023-05-02T17:45:50.625Z,102106.38
2023-05-02T17:48:17.310Z,102111.50
2023-05-02T17:50:44.059Z,102119.34
2023-05-02T17:53:10.543Z,102115.06
2023-05-02T17:55:37.626Z,102121.94
2023-05-02T17:58:04.252Z,102122.41
2023-05-02T18:00:30.650Z,102121.56
2023-05-02T18:02:57.244Z,102116.97
2023-05-02T18:05:26.285Z,102120.16
2023-05-02T18:07:53.060Z,102123.22
2023-05-02T18:10:19.509Z,102118.22
2023-05-02T18:12:45.932Z,102130.69
2023-05-02T18:15:12.308Z,102129.03
2023-05-02T18:17:38.777Z,102127.34
2023-05-02T18:20:07.240Z,102130.34
2023-05-02T18:22:33.789Z,102128.53
2023-05-02T18:25:00.455Z,102129.22
2023-05-02T18:27:27.237Z,102131.97
2023-05-02T18:29:54.419Z,102146.16
2023-05-02T18:32:21.532Z,102138.22
2023-05-02T18:34:48.380Z,102135.59
2023-05-02T18:37:14.721Z,102137.22
2023-05-02T18:39:41.076Z,102135.78
2023-05-02T18:42:08.239Z,102141.31
2023-05-02T18:44:34.619Z,102138.13
2023-05-02T18:47:01.022Z,102141.56
2023-05-02T18:49:27.464Z,102151.44
2023-05-02T18:51:57.122Z,102149.72
2023-05-02T18:54:24.183Z,102149.31
2023-05-02T18:56:50.587Z,102148.66
2023-05-02T18:59:17.756Z,102144.44
2023-05-02T19:01:46.155Z,102147.91
2023-05-02T19:04:12.717Z,102153.25
2023-05-02T19:06:39.157Z,102161.41
2023-05-02T19:09:05.594Z,102166.19
2023-05-02T19:11:32.024Z,102169.31
2023-05-02T19:14:00.507Z,102170.22
2023-05-02T19:16:28.912Z,102172.78
2023-05-02T19:18:56.925Z,102177.44
2023-05-02T19:21:23.445Z,102183.00
2023-05-02T19:23:50.390Z,102187.66
2023-05-02T19:26:17.770Z,102183.63
2023-05-02T19:28:44.957Z,102191.94
2023-05-02T19:31:12.918Z,102193.50
2023-05-02T19:33:40.615Z,102211.91
2023-05-02T19:36:07.523Z,102211.00
2023-05-02T19:38:34.798Z,102213.72
2023-05-02T19:41:02.100Z,102215.31
2023-05-02T19:43:28.625Z,102212.84
2023-05-02T19:45:55.188Z,102214.97
2023-05-02T19:48:22.844Z,102216.44
2023-05-02T19:50:49.734Z,102218.53
2023-05-02T19:53:16.104Z,102220.44
2023-05-02T19:55:42.483Z,102232.22
2023-05-02T19:58:08.805Z,102224.50
2023-05-02T20:00:35.458Z,102218.00
2023-05-02T20:03:02.333Z,102210.09
2023-05-02T20:05:28.806Z,102213.91
2023-05-02T20:07:55.418Z,102221.25
2023-05-02T20:10:23.618Z,102226.88
2023-05-02T20:12:50.013Z,102239.09
2023-05-02T20:15:16.826Z,102236.94
2023-05-02T20:17:43.338Z,102240.94
2023-05-02T20:20:11.382Z,102241.78
2023-05-02T20:22:41.029Z,102238.22
2023-05-02T20:25:17.428Z,102245.41
2023-05-02T20:27:43.851Z,102249.56
2023-05-02T20:30:10.656Z,102251.88
2023-05-02T20:32:37.229Z,102247.13
2023-05-02T20:35:03.734Z,102255.47
2023-05-02T20:37:30.411Z,102249.84
2023-05-02T20:39:56.937Z,102250.06
2023-05-02T20:42:25.662Z,102260.94
2023-05-02T20:44:57.758Z,102260.13
2023-05-02T20:47:30.019Z,102263.06
2023-05-02T20:49:57.664Z,102263.06
2023-05-02T20:52:24.056Z,102266.63
2023-05-02T20:54:53.663Z,102261.38
2023-05-02T20:57:20.127Z,102261.00
2023-05-02T20:59:46.697Z,102256.59
2023-05-02T21:02:13.190Z,102264.34
2023-05-02T21:04:41.014Z,102263.94
2023-05-02T21:07:07.758Z,102272.72
2023-05-02T21:09:34.133Z,102267.69
2023-05-02T21:12:00.723Z,102264.56
2023-05-02T21:14:27.066Z,102276.06
2023-05-02T21:16:53.634Z,102267.28
2023-05-02T21:19:20.309Z,102269.78
2023-05-02T21:21:47.519Z,102273.53
2023-05-02T21:24:14.644Z,102270.81
2023-05-02T21:26:41.509Z,102277.69
2023-05-02T21:29:08.132Z,102272.03
2023-05-02T21:31:34.682Z,102275.56
2023-05-02T21:34:01.010Z,102265.34
2023-05-02T21:36:27.376Z,102270.97
2023-05-02T21:38:53.934Z,102276.38
2023-05-02T21:41:20.739Z,102276.56
2023-05-02T21:43:47.192Z,102266.50
2023-05-02T21:46:13.810Z,102282.34
2023-05-02T21:48:40.210Z,102286.09
2023-05-02T21:51:07.930Z,102285.69
2023-05-02T21:53:34.310Z,102272.28
2023-05-02T21:56:00.737Z,102283.94
2023-05-02T21:58:28.696Z,102282.03
2023-05-02T22:00:55.370Z,102290.47
2023-05-02T22:03:23.290Z,102286.13
2023-05-02T22:05:49.825Z,102293.84
2023-05-02T22:08:16.505Z,102299.47
2023-05-02T22:10:44.117Z,102306.53
2023-05-02T22:13:12.574Z,102300.28
2023-05-02T22:15:45.462Z,102301.53
2023-05-02T22:18:13.781Z,102303.19
2023-05-02T22:20:44.570Z,102297.84
2023-05-02T22:23:11.835Z,102302.56
2023-05-02T22:25:41.366Z,102307.16
2023-05-02T22:28:11.328Z,102298.56
2023-05-02T22:30:38.988Z,102300.72
2023-05-02T22:33:06.492Z,102307.19
2023-05-02T22:35:33.024Z,102309.06
2023-05-02T22:38:01.568Z,102317.38
2023-05-02T22:40:30.291Z,102315.63
2023-05-02T22:42:57.165Z,102316.03
2023-05-02T22:45:23.700Z,102316.66
2023-05-02T22:47:51.277Z,102309.84
2023-05-02T22:50:17.865Z,102320.25
2023-05-02T22:52:44.474Z,102305.59
2023-05-02T22:55:11.661Z,102312.44
2023-05-02T22:57:39.025Z,102314.75
2023-05-02T23:00:07.407Z,102321.06
2023-05-02T23:02:33.869Z,102318.03
2023-05-02T23:05:01.031Z,102306.66
2023-05-02T23:07:27.526Z,102306.13
2023-05-02T23:09:53.963Z,102302.97
2023-05-02T23:12:20.406Z,102307.19
2023-05-02T23:14:46.754Z,102305.13
2023-05-02T23:17:13.123Z,102303.84
2023-05-02T23:19:39.552Z,102302.97
2023-05-02T23:22:06.022Z,102298.41
2023-05-02T23:24:32.674Z,102294.19
2023-05-02T23:26:59.082Z,102292.91
2023-05-02T23:29:25.646Z,102294.56
2023-05-02T23:31:54.264Z,102294.56
2023-05-02T23:34:21.872Z,102302.47
2023-05-02T23:36:48.696Z,102300.13
2023-05-02T23:39:15.563Z,102292.50
2023-05-02T23:41:42.362Z,102300.75
2023-05-02T23:44:08.766Z,102300.72
2023-05-02T23:46:35.260Z,102300.75
2023-05-02T23:49:01.744Z,102308.66
2023-05-02T23:51:28.427Z,102303.13
2023-05-02T23:53:54.849Z,102303.63
2023-05-02T23:56:21.296Z,102301.38
2023-05-02T23:58:47.710Z,102295.75
